sensor_id;sensor_type;location;lat;lon;timestamp;pressure;altitude;pressure_sealevel;temperature;humidity
23261;BME280;11799;47.740;-3.390;2023-02-28T00:00:37;102717.41;;;3.11;68.52
23261;BME280;11799;47.740;-3.390;2023-02-28T00:03:02;102720.06;;;3.09;69.13
23261;BME280;11799;47.740;-3.390;2023-02-28T00:05:28;102722.69;;;3.08;69.24
23261;BME280;11799;47.740;-3.390;2023-02-28T00:07:54;102722.72;;;3.06;68.94
23261;BME280;11799;47.740;-3.390;2023-02-28T00:10:26;102721.81;;;3.09;69.14
23261;BME280;11799;47.740;-3.390;2023-02-28T00:12:54;102720.94;;;3.08;69.29
23261;BME280;11799;47.740;-3.390;2023-02-28T00:15:22;102729.72;;;3.04;69.48
23261;BME280;11799;47.740;-3.390;2023-02-28T00:17:49;102734.91;;;3.06;69.56
23261;BME280;11799;47.740;-3.390;2023-02-28T00:20:15;102729.72;;;3.03;69.58
23261;BME280;11799;47.740;-3.390;2023-02-28T00:22:42;102721.03;;;3.02;69.57
23261;BME280;11799;47.740;-3.390;2023-02-28T00:25:10;102716.75;;;2.98;69.55
23261;BME280;11799;47.740;-3.390;2023-02-28T00:27:37;102721.13;;;2.97;69.84
23261;BME280;11799;47.740;-3.390;2023-02-28T00:30:04;102724.63;;;2.95;70.10
23261;BME280;11799;47.740;-3.390;2023-02-28T00:32:31;102722.88;;;2.95;70.07
23261;BME280;11799;47.740;-3.390;2023-02-28T00:34:56;102722.03;;;2.95;69.62
23261;BME280;11799;47.740;-3.390;2023-02-28T00:37:22;102726.31;;;2.99;70.32
23261;BME280;11799;47.740;-3.390;2023-02-28T00:39:48;102735.94;;;2.95;69.72
23261;BME280;11799;47.740;-3.390;2023-02-28T00:42:15;102744.63;;;2.96;69.88
23261;BME280;11799;47.740;-3.390;2023-02-28T00:44:40;102740.28;;;2.95;70.29
23261;BME280;11799;47.740;-3.390;2023-02-28T00:47:06;102743.78;;;2.94;70.18
23261;BME280;11799;47.740;-3.390;2023-02-28T00:49:31;102732.53;;;2.90;70.28
23261;BME280;11799;47.740;-3.390;2023-02-28T00:51:57;102743.84;;;2.89;70.38
23261;BME280;11799;47.740;-3.390;2023-02-28T00:54:25;102743.06;;;2.86;70.69
23261;BME280;11799;47.740;-3.390;2023-02-28T00:56:51;102743.06;;;2.86;70.45
23261;BME280;11799;47.740;-3.390;2023-02-28T00:59:17;102745.69;;;2.84;70.98
23261;BME280;11799;47.740;-3.390;2023-02-28T01:01:44;102740.50;;;2.84;70.82
23261;BME280;11799;47.740;-3.390;2023-02-28T01:04:11;102745.69;;;2.86;70.43
23261;BME280;11799;47.740;-3.390;2023-02-28T01:06:37;102739.63;;;2.84;70.71
23261;BME280;11799;47.740;-3.390;2023-02-28T01:09:04;102743.97;;;2.85;71.01
23261;BME280;11799;47.740;-3.390;2023-02-28T01:11:30;102746.56;;;2.85;70.21
23261;BME280;11799;47.740;-3.390;2023-02-28T01:13:56;102749.19;;;2.83;71.26
23261;BME280;11799;47.740;-3.390;2023-02-28T01:16:22;102749.19;;;2.85;70.50
23261;BME280;11799;47.740;-3.390;2023-02-28T01:18:48;102748.34;;;2.81;70.96
23261;BME280;11799;47.740;-3.390;2023-02-28T01:21:16;102750.16;;;2.78;70.41
23261;BME280;11799;47.740;-3.390;2023-02-28T01:23:43;102745.81;;;2.77;70.76
23261;BME280;11799;47.740;-3.390;2023-02-28T01:26:12;102753.56;;;2.81;70.83
23261;BME280;11799;47.740;-3.390;2023-02-28T01:28:39;102744.94;;;2.76;70.57
23261;BME280;11799;47.740;-3.390;2023-02-28T01:31:05;102743.19;;;2.78;71.20
23261;BME280;11799;47.740;-3.390;2023-02-28T01:33:31;102745.78;;;2.80;70.96
23261;BME280;11799;47.740;-3.390;2023-02-28T01:36:08;102744.06;;;2.77;70.85
23261;BME280;11799;47.740;-3.390;2023-02-28T01:38:35;102745.78;;;2.78;70.62
23261;BME280;11799;47.740;-3.390;2023-02-28T01:41:01;102743.22;;;2.77;70.44
23261;BME280;11799;47.740;-3.390;2023-02-28T01:43:29;102749.31;;;2.76;71.21
23261;BME280;11799;47.740;-3.390;2023-02-28T01:45:56;102747.56;;;2.76;70.85
23261;BME280;11799;47.740;-3.390;2023-02-28T01:48:31;102746.69;;;2.76;71.06
23261;BME280;11799;47.740;-3.390;2023-02-28T01:51:02;102746.72;;;2.74;71.11
23261;BME280;11799;47.740;-3.390;2023-02-28T01:53:34;102738.88;;;2.76;70.65
23261;BME280;11799;47.740;-3.390;2023-02-28T01:56:04;102745.78;;;2.78;70.88
23261;BME280;11799;47.740;-3.390;2023-02-28T01:58:31;102745.81;;;2.77;70.42
23261;BME280;11799;47.740;-3.390;2023-02-28T02:00:57;102749.34;;;2.74;70.41
23261;BME280;11799;47.740;-3.390;2023-02-28T02:03:23;102739.78;;;2.73;70.63
23261;BME280;11799;47.740;-3.390;2023-02-28T02:05:48;102745.00;;;2.73;70.77
23261;BME280;11799;47.740;-3.390;2023-02-28T02:08:21;102743.28;;;2.72;70.70
23261;BME280;11799;47.740;-3.390;2023-02-28T02:10:52;102750.22;;;2.73;71.31
23261;BME280;11799;47.740;-3.390;2023-02-28T02:18:51;102756.28;;;2.74;70.46
23261;BME280;11799;47.740;-3.390;2023-02-28T02:26:50;102744.22;;;2.67;70.66
23261;BME280;11799;47.740;-3.390;2023-02-28T02:29:37;102747.69;;;2.67;70.41
23261;BME280;11799;47.740;-3.390;2023-02-28T02:35:15;102745.16;;;2.62;70.69
23261;BME280;11799;47.740;-3.390;2023-02-28T02:40:36;102752.97;;;2.62;70.59
23261;BME280;11799;47.740;-3.390;2023-02-28T02:43:08;102755.59;;;2.61;70.49
23261;BME280;11799;47.740;-3.390;2023-02-28T02:48:06;102753.03;;;2.58;71.00
23261;BME280;11799;47.740;-3.390;2023-02-28T02:50:38;102753.00;;;2.59;70.65
23261;BME280;11799;47.740;-3.390;2023-02-28T02:53:05;102746.13;;;2.55;70.32
23261;BME280;11799;47.740;-3.390;2023-02-28T02:55:34;102751.34;;;2.54;70.68
23261;BME280;11799;47.740;-3.390;2023-02-28T02:58:05;102747.91;;;2.52;70.87
23261;BME280;11799;47.740;-3.390;2023-02-28T03:00:35;102744.38;;;2.54;70.95
23261;BME280;11799;47.740;-3.390;2023-02-28T03:03:03;102745.31;;;2.50;70.74
23261;BME280;11799;47.740;-3.390;2023-02-28T03:05:39;102745.34;;;2.47;70.44
23261;BME280;11799;47.740;-3.390;2023-02-28T03:08:07;102750.53;;;2.50;70.76
23261;BME280;11799;47.740;-3.390;2023-02-28T03:10:36;102758.34;;;2.50;70.62
23261;BME280;11799;47.740;-3.390;2023-02-28T03:21:28;102754.91;;;2.47;70.89
23261;BME280;11799;47.740;-3.390;2023-02-28T03:26:29;102754.97;;;2.44;70.56
23261;BME280;11799;47.740;-3.390;2023-02-28T03:31:28;102757.56;;;2.45;70.42
23261;BME280;11799;47.740;-3.390;2023-02-28T03:34:03;102754.03;;;2.48;70.69
23261;BME280;11799;47.740;-3.390;2023-02-28T03:36:38;102756.66;;;2.46;70.77
23261;BME280;11799;47.740;-3.390;2023-02-28T03:39:13;102760.13;;;2.48;70.33
23261;BME280;11799;47.740;-3.390;2023-02-28T03:41:52;102754.09;;;2.43;70.45
23261;BME280;11799;47.740;-3.390;2023-02-28T03:44:36;102775.84;;;2.42;70.22
23261;BME280;11799;47.740;-3.390;2023-02-28T03:47:12;102761.06;;;2.41;70.15
23261;BME280;11799;47.740;-3.390;2023-02-28T03:49:54;102760.19;;;2.44;70.19
23261;BME280;11799;47.740;-3.390;2023-02-28T03:52:23;102760.22;;;2.41;69.96
23261;BME280;11799;47.740;-3.390;2023-02-28T03:54:55;102766.34;;;2.38;70.04
23261;BME280;11799;47.740;-3.390;2023-02-28T03:57:58;102772.44;;;2.37;70.54
23261;BME280;11799;47.740;-3.390;2023-02-28T04:00:38;102764.56;;;2.40;70.25
23261;BME280;11799;47.740;-3.390;2023-02-28T04:03:06;102763.72;;;2.40;70.28
23261;BME280;11799;47.740;-3.390;2023-02-28T04:05:32;102765.44;;;2.39;70.76
23261;BME280;11799;47.740;-3.390;2023-02-28T04:08:05;102763.84;;;2.30;70.26
23261;BME280;11799;47.740;-3.390;2023-02-28T04:10:31;102767.34;;;2.28;70.16
23261;BME280;11799;47.740;-3.390;2023-02-28T04:12:57;102768.22;;;2.28;70.55
23261;BME280;11799;47.740;-3.390;2023-02-28T04:15:23;102764.75;;;2.28;70.25
23261;BME280;11799;47.740;-3.390;2023-02-28T04:17:50;102765.63;;;2.28;70.55
23261;BME280;11799;47.740;-3.390;2023-02-28T04:20:16;102763.09;;;2.22;70.71
23261;BME280;11799;47.740;-3.390;2023-02-28T04:22:41;102757.81;;;2.27;70.39
23261;BME280;11799;47.740;-3.390;2023-02-28T04:25:07;102763.03;;;2.25;70.56
23261;BME280;11799;47.740;-3.390;2023-02-28T04:27:33;102765.63;;;2.27;70.45
23261;BME280;11799;47.740;-3.390;2023-02-28T04:29:59;102756.09;;;2.26;70.70
23261;BME280;11799;47.740;-3.390;2023-02-28T04:32:24;102761.31;;;2.24;70.44
23261;BME280;11799;47.740;-3.390;2023-02-28T04:34:50;102765.69;;;2.22;70.94
23261;BME280;11799;47.740;-3.390;2023-02-28T04:37:15;102771.78;;;2.21;70.98
23261;BME280;11799;47.740;-3.390;2023-02-28T04:39:41;102770.06;;;2.20;70.67
23261;BME280;11799;47.740;-3.390;2023-02-28T04:42:08;102770.94;;;2.19;70.90
23261;BME280;11799;47.740;-3.390;2023-02-28T04:44:34;102780.47;;;2.22;71.12
23261;BME280;11799;47.740;-3.390;2023-02-28T04:47:00;102782.22;;;2.20;70.71
23261;BME280;11799;47.740;-3.390;2023-02-28T04:49:25;102780.50;;;2.19;70.69
23261;BME280;11799;47.740;-3.390;2023-02-28T04:51:51;102778.78;;;2.16;71.01
23261;BME280;11799;47.740;-3.390;2023-02-28T04:54:18;102781.41;;;2.15;70.47
23261;BME280;11799;47.740;-3.390;2023-02-28T04:56:43;102783.19;;;2.13;70.49
23261;BME280;11799;47.740;-3.390;2023-02-28T04:59:09;102780.59;;;2.10;70.33
23261;BME280;11799;47.740;-3.390;2023-02-28T05:01:34;102777.13;;;2.09;71.09
23261;BME280;11799;47.740;-3.390;2023-02-28T05:04:03;102789.34;;;2.06;71.18
23261;BME280;11799;47.740;-3.390;2023-02-28T05:06:31;102784.97;;;2.08;71.03
23261;BME280;11799;47.740;-3.390;2023-02-28T05:08:57;102793.66;;;2.07;70.79
23261;BME280;11799;47.740;-3.390;2023-02-28T05:11:26;102796.28;;;2.05;71.11
23261;BME280;11799;47.740;-3.390;2023-02-28T05:13:55;102791.13;;;2.02;71.44
23261;BME280;11799;47.740;-3.390;2023-02-28T05:16:21;102785.06;;;1.98;71.21
23261;BME280;11799;47.740;-3.390;2023-02-28T05:18:46;102775.50;;;1.99;71.42
23261;BME280;11799;47.740;-3.390;2023-02-28T05:21:33;102790.28;;;1.98;71.08
23261;BME280;11799;47.740;-3.390;2023-02-28T05:24:01;102788.53;;;2.01;71.13
23261;BME280;11799;47.740;-3.390;2023-02-28T05:26:27;102786.78;;;1.99;71.47
23261;BME280;11799;47.740;-3.390;2023-02-28T05:28:53;102786.78;;;1.99;70.97
23261;BME280;11799;47.740;-3.390;2023-02-28T05:31:20;102774.66;;;1.97;71.09
23261;BME280;11799;47.740;-3.390;2023-02-28T05:33:46;102780.75;;;1.96;70.97
23261;BME280;11799;47.740;-3.390;2023-02-28T05:36:12;102779.00;;;1.98;71.10
23261;BME280;11799;47.740;-3.390;2023-02-28T05:38:37;102772.97;;;1.93;71.38
23261;BME280;11799;47.740;-3.390;2023-02-28T05:41:08;102780.78;;;1.94;70.98
23261;BME280;11799;47.740;-3.390;2023-02-28T05:43:34;102773.84;;;1.93;70.99
23261;BME280;11799;47.740;-3.390;2023-02-28T05:46:02;102786.00;;;1.93;71.24
23261;BME280;11799;47.740;-3.390;2023-02-28T05:48:28;102783.41;;;1.91;71.52
23261;BME280;11799;47.740;-3.390;2023-02-28T05:50:53;102793.84;;;1.90;70.95
23261;BME280;11799;47.740;-3.390;2023-02-28T05:53:19;102797.34;;;1.87;70.94
23261;BME280;11799;47.740;-3.390;2023-02-28T05:55:44;102804.31;;;1.84;70.93
23261;BME280;11799;47.740;-3.390;2023-02-28T05:58:10;102808.66;;;1.85;71.63
23261;BME280;11799;47.740;-3.390;2023-02-28T06:00:35;102801.69;;;1.88;71.26
23261;BME280;11799;47.740;-3.390;2023-02-28T06:03:01;102809.53;;;1.85;71.52
23261;BME280;11799;47.740;-3.390;2023-02-28T06:05:27;102814.75;;;1.82;71.33
23261;BME280;11799;47.740;-3.390;2023-02-28T06:07:53;102807.81;;;1.81;71.52
23261;BME280;11799;47.740;-3.390;2023-02-28T06:10:19;102820.00;;;1.79;71.28
23261;BME280;11799;47.740;-3.390;2023-02-28T06:12:44;102821.75;;;1.79;71.39
23261;BME280;11799;47.740;-3.390;2023-02-28T06:15:14;102826.09;;;1.78;71.43
23261;BME280;11799;47.740;-3.390;2023-02-28T06:17:41;102821.75;;;1.77;71.62
23261;BME280;11799;47.740;-3.390;2023-02-28T06:20:08;102832.16;;;1.79;71.46
23261;BME280;11799;47.740;-3.390;2023-02-28T06:22:35;102830.44;;;1.78;71.65
23261;BME280;11799;47.740;-3.390;2023-02-28T06:25:01;102838.25;;;1.78;71.58
23261;BME280;11799;47.740;-3.390;2023-02-28T06:27:27;102844.31;;;1.78;71.36
23261;BME280;11799;47.740;-3.390;2023-02-28T06:29:55;102842.56;;;1.79;72.00
23261;BME280;11799;47.740;-3.390;2023-02-28T06:32:21;102846.94;;;1.77;72.06
23261;BME280;11799;47.740;-3.390;2023-02-28T06:34:47;102842.63;;;1.74;71.80
23261;BME280;11799;47.740;-3.390;2023-02-28T06:37:13;102844.34;;;1.74;71.77
23261;BME280;11799;47.740;-3.390;2023-02-28T06:39:38;102853.97;;;1.70;71.80
23261;BME280;11799;47.740;-3.390;2023-02-28T06:42:05;102847.91;;;1.68;71.77
23261;BME280;11799;47.740;-3.390;2023-02-28T06:44:31;102856.59;;;1.67;71.75
23261;BME280;11799;47.740;-3.390;2023-02-28T06:47:01;102852.28;;;1.64;71.37
23261;BME280;11799;47.740;-3.390;2023-02-28T06:49:31;102859.25;;;1.61;71.60
23261;BME280;11799;47.740;-3.390;2023-02-28T06:51:57;102866.19;;;1.63;71.38
23261;BME280;11799;47.740;-3.390;2023-02-28T06:54:23;102861.88;;;1.61;71.25
23261;BME280;11799;47.740;-3.390;2023-02-28T06:56:49;102866.22;;;1.59;71.46
23261;BME280;11799;47.740;-3.390;2023-02-28T06:59:15;102864.50;;;1.58;71.50
23261;BME280;11799;47.740;-3.390;2023-02-28T07:01:40;102863.63;;;1.57;71.60
23261;BME280;11799;47.740;-3.390;2023-02-28T07:04:06;102861.88;;;1.59;71.65
23261;BME280;11799;47.740;-3.390;2023-02-28T07:06:32;102869.69;;;1.61;71.57
23261;BME280;11799;47.740;-3.390;2023-02-28T07:08:58;102866.22;;;1.60;71.67
23261;BME280;11799;47.740;-3.390;2023-02-28T07:11:26;102866.22;;;1.59;71.60
23261;BME280;11799;47.740;-3.390;2023-02-28T07:13:55;102867.13;;;1.55;71.39
23261;BME280;11799;47.740;-3.390;2023-02-28T07:16:23;102866.22;;;1.57;71.48
23261;BME280;11799;47.740;-3.390;2023-02-28T07:18:49;102869.69;;;1.58;71.38
23261;BME280;11799;47.740;-3.390;2023-02-28T07:21:15;102866.22;;;1.60;71.41
23261;BME280;11799;47.740;-3.390;2023-02-28T07:23:40;102870.50;;;1.66;71.67
23261;BME280;11799;47.740;-3.390;2023-02-28T07:26:12;102871.38;;;1.63;71.66
23261;BME280;11799;47.740;-3.390;2023-02-28T07:28:44;102873.97;;;1.68;71.25
23261;BME280;11799;47.740;-3.390;2023-02-28T07:31:11;102878.31;;;1.68;71.09
23261;BME280;11799;47.740;-3.390;2023-02-28T07:33:37;102882.63;;;1.70;71.34
23261;BME280;11799;47.740;-3.390;2023-02-28T07:36:05;102883.47;;;1.72;70.71
23261;BME280;11799;47.740;-3.390;2023-02-28T07:38:33;102886.91;;;1.76;70.96
23261;BME280;11799;47.740;-3.390;2023-02-28T07:40:59;102880.81;;;1.77;71.43
23261;BME280;11799;47.740;-3.390;2023-02-28T07:43:25;102888.59;;;1.80;71.00
23261;BME280;11799;47.740;-3.390;2023-02-28T07:45:50;102890.31;;;1.81;71.10
23261;BME280;11799;47.740;-3.390;2023-02-28T07:48:16;102890.31;;;1.84;71.11
23261;BME280;11799;47.740;-3.390;2023-02-28T07:50:41;102892.88;;;1.87;70.79
23261;BME280;11799;47.740;-3.390;2023-02-28T07:53:07;102900.63;;;1.94;71.42
23261;BME280;11799;47.740;-3.390;2023-02-28T07:55:32;102891.06;;;1.96;71.10
23261;BME280;11799;47.740;-3.390;2023-02-28T07:57:58;102895.41;;;1.96;70.96
23261;BME280;11799;47.740;-3.390;2023-02-28T08:00:24;102904.06;;;1.99;70.70
23261;BME280;11799;47.740;-3.390;2023-02-28T08:02:50;102903.13;;;2.07;70.27
23261;BME280;11799;47.740;-3.390;2023-02-28T08:05:16;102895.28;;;2.10;69.66
23261;BME280;11799;47.740;-3.390;2023-02-28T08:07:42;102903.84;;;2.22;69.85
23261;BME280;11799;47.740;-3.390;2023-02-28T08:10:08;102905.81;;;2.80;69.00
23261;BME280;11799;47.740;-3.390;2023-02-28T08:12:35;102909.09;;;3.53;69.33
23261;BME280;11799;47.740;-3.390;2023-02-28T08:15:01;102910.47;;;4.27;68.11
23261;BME280;11799;47.740;-3.390;2023-02-28T08:17:27;102910.47;;;4.71;61.90
23261;BME280;11799;47.740;-3.390;2023-02-28T08:19:52;102904.34;;;5.13;61.65
23261;BME280;11799;47.740;-3.390;2023-02-28T08:22:18;102917.88;;;5.32;59.18
23261;BME280;11799;47.740;-3.390;2023-02-28T08:24:44;102914.69;;;5.56;57.91
23261;BME280;11799;47.740;-3.390;2023-02-28T08:27:09;102919.53;;;5.73;58.09
23261;BME280;11799;47.740;-3.390;2023-02-28T08:29:38;102920.63;;;5.64;56.49
23261;BME280;11799;47.740;-3.390;2023-02-28T08:32:05;102915.41;;;5.63;56.99
23261;BME280;11799;47.740;-3.390;2023-02-28T08:34:31;102914.59;;;5.61;55.65
23261;BME280;11799;47.740;-3.390;2023-02-28T08:36:56;102919.13;;;5.54;55.80
23261;BME280;11799;47.740;-3.390;2023-02-28T08:39:22;102920.84;;;5.55;56.30
23261;BME280;11799;47.740;-3.390;2023-02-28T08:41:47;102920.78;;;5.58;57.22
23261;BME280;11799;47.740;-3.390;2023-02-28T08:44:13;102934.59;;;5.65;57.40
23261;BME280;11799;47.740;-3.390;2023-02-28T08:46:38;102932.09;;;5.60;57.00
23261;BME280;11799;47.740;-3.390;2023-02-28T08:49:04;102932.88;;;5.64;56.53
23261;BME280;11799;47.740;-3.390;2023-02-28T08:51:30;102929.53;;;5.57;57.04
23261;BME280;11799;47.740;-3.390;2023-02-28T08:53:59;102931.22;;;5.60;57.29
23261;BME280;11799;47.740;-3.390;2023-02-28T08:56:26;102933.84;;;5.60;56.85
23261;BME280;11799;47.740;-3.390;2023-02-28T08:58:54;102932.88;;;5.64;57.33
23261;BME280;11799;47.740;-3.390;2023-02-28T09:01:24;102938.13;;;5.64;56.78
23261;BME280;11799;47.740;-3.390;2023-02-28T09:03:52;102939.91;;;5.62;56.79
23261;BME280;11799;47.740;-3.390;2023-02-28T09:06:20;102932.03;;;5.62;56.19
23261;BME280;11799;47.740;-3.390;2023-02-28T09:08:45;102934.59;;;5.65;55.83
23261;BME280;11799;47.740;-3.390;2023-02-28T09:11:11;102928.34;;;5.71;55.60
23261;BME280;11799;47.740;-3.390;2023-02-28T09:13:37;102944.66;;;5.82;54.91
23261;BME280;11799;47.740;-3.390;2023-02-28T09:16:05;102931.09;;;6.02;54.44
23261;BME280;11799;47.740;-3.390;2023-02-28T09:18:31;102933.44;;;6.12;52.34
23261;BME280;11799;47.740;-3.390;2023-02-28T09:20:57;102935.44;;;6.03;52.37
23261;BME280;11799;47.740;-3.390;2023-02-28T09:23:23;102936.16;;;6.09;50.64
23261;BME280;11799;47.740;-3.390;2023-02-28T09:25:54;102924.91;;;6.04;51.94
23261;BME280;11799;47.740;-3.390;2023-02-28T09:28:20;102929.31;;;6.02;50.80
23261;BME280;11799;47.740;-3.390;2023-02-28T09:30:52;102914.53;;;6.00;51.74
23261;BME280;11799;47.740;-3.390;2023-02-28T09:33:19;102919.53;;;6.09;53.07
23261;BME280;11799;47.740;-3.390;2023-02-28T09:35:56;102917.88;;;6.06;51.26
23261;BME280;11799;47.740;-3.390;2023-02-28T09:38:22;102915.13;;;6.11;51.19
23261;BME280;11799;47.740;-3.390;2023-02-28T09:40:53;102909.88;;;6.11;51.16
23261;BME280;11799;47.740;-3.390;2023-02-28T09:43:22;102899.41;;;6.09;51.12
23261;BME280;11799;47.740;-3.390;2023-02-28T09:46:00;102902.66;;;6.19;52.02
23261;BME280;11799;47.740;-3.390;2023-02-28T09:48:32;102899.16;;;6.20;50.95
23261;BME280;11799;47.740;-3.390;2023-02-28T09:51:05;102897.25;;;6.25;51.59
23261;BME280;11799;47.740;-3.390;2023-02-28T09:53:37;102893.63;;;6.31;51.53
23261;BME280;11799;47.740;-3.390;2023-02-28T09:56:08;102885.63;;;6.35;50.97
23261;BME280;11799;47.740;-3.390;2023-02-28T09:58:42;102894.13;;;6.43;50.33
23261;BME280;11799;47.740;-3.390;2023-02-28T10:09:45;102904.66;;;6.73;50.04
23261;BME280;11799;47.740;-3.390;2023-02-28T10:12:12;102911.38;;;6.83;49.59
23261;BME280;11799;47.740;-3.390;2023-02-28T10:14:44;102903.38;;;6.87;50.08
23261;BME280;11799;47.740;-3.390;2023-02-28T10:17:17;102894.44;;;6.93;49.04
23261;BME280;11799;47.740;-3.390;2023-02-28T10:20:19;102895.22;;;6.95;49.11
23261;BME280;11799;47.740;-3.390;2023-02-28T10:23:20;102906.81;;;6.89;47.55
23261;BME280;11799;47.740;-3.390;2023-02-28T10:25:55;102916.28;;;6.93;48.33
23261;BME280;11799;47.740;-3.390;2023-02-28T10:28:24;102905.91;;;6.90;47.63
23261;BME280;11799;47.740;-3.390;2023-02-28T10:30:52;102911.16;;;6.90;47.95
23261;BME280;11799;47.740;-3.390;2023-02-28T10:33:42;102904.19;;;6.89;49.07
23261;BME280;11799;47.740;-3.390;2023-02-28T10:36:11;102912.97;;;6.88;47.61
23261;BME280;11799;47.740;-3.390;2023-02-28T10:38:39;102917.59;;;6.80;47.67
23261;BME280;11799;47.740;-3.390;2023-02-28T10:41:08;102922.16;;;6.74;48.03
23261;BME280;11799;47.740;-3.390;2023-02-28T10:43:34;102909.22;;;6.66;48.69
23261;BME280;11799;47.740;-3.390;2023-02-28T10:48:44;102906.53;;;6.69;48.74
23261;BME280;11799;47.740;-3.390;2023-02-28T10:51:13;102897.44;;;6.81;49.30
23261;BME280;11799;47.740;-3.390;2023-02-28T10:53:48;102917.03;;;6.99;49.55
23261;BME280;11799;47.740;-3.390;2023-02-28T10:56:22;102902.47;;;7.16;49.03
23261;BME280;11799;47.740;-3.390;2023-02-28T10:58:57;102896.41;;;7.42;48.19
23261;BME280;11799;47.740;-3.390;2023-02-28T11:01:46;102904.56;;;7.61;49.55
23261;BME280;11799;47.740;-3.390;2023-02-28T11:04:19;102894.16;;;7.84;47.78
23261;BME280;11799;47.740;-3.390;2023-02-28T11:06:47;102898.09;;;7.98;47.08
23261;BME280;11799;47.740;-3.390;2023-02-28T11:09:27;102879.78;;;7.94;45.05
23261;BME280;11799;47.740;-3.390;2023-02-28T11:11:54;102889.66;;;7.88;45.74
23261;BME280;11799;47.740;-3.390;2023-02-28T11:14:32;102906.41;;;7.85;46.63
23261;BME280;11799;47.740;-3.390;2023-02-28T11:17:13;102897.34;;;7.94;46.01
23261;BME280;11799;47.740;-3.390;2023-02-28T11:19:45;102878.91;;;7.94;45.52
23261;BME280;11799;47.740;-3.390;2023-02-28T11:22:19;102883.31;;;7.93;45.10
23261;BME280;11799;47.740;-3.390;2023-02-28T11:24:48;102887.53;;;7.99;46.73
23261;BME280;11799;47.740;-3.390;2023-02-28T11:29:57;102891.97;;;8.22;46.50
23261;BME280;11799;47.740;-3.390;2023-02-28T11:32:25;102878.75;;;8.23;46.08
23261;BME280;11799;47.740;-3.390;2023-02-28T11:37:30;102874.72;;;8.13;45.85
23261;BME280;11799;47.740;-3.390;2023-02-28T11:39:56;102871.69;;;8.01;47.30
23261;BME280;11799;47.740;-3.390;2023-02-28T11:53:55;102872.34;;;7.81;46.74
23261;BME280;11799;47.740;-3.390;2023-02-28T12:04:24;102861.03;;;7.79;46.80
23261;BME280;11799;47.740;-3.390;2023-02-28T12:07:09;102859.91;;;7.86;46.46
23261;BME280;11799;47.740;-3.390;2023-02-28T12:09:50;102847.41;;;7.92;45.96
23261;BME280;11799;47.740;-3.390;2023-02-28T12:23:33;102819.00;;;8.25;43.99
23261;BME280;11799;47.740;-3.390;2023-02-28T12:28:43;102803.72;;;8.37;43.06
23261;BME280;11799;47.740;-3.390;2023-02-28T12:31:21;102799.09;;;8.43;42.24
23261;BME280;11799;47.740;-3.390;2023-02-28T12:33:52;102793.94;;;8.40;40.58
23261;BME280;11799;47.740;-3.390;2023-02-28T12:36:20;102778.94;;;8.42;40.61
23261;BME280;11799;47.740;-3.390;2023-02-28T12:38:56;102788.84;;;8.59;41.04
23261;BME280;11799;47.740;-3.390;2023-02-28T12:41:41;102781.84;;;8.58;40.70
23261;BME280;11799;47.740;-3.390;2023-02-28T12:44:16;102791.25;;;8.65;41.59
23261;BME280;11799;47.740;-3.390;2023-02-28T12:46:47;102771.69;;;8.71;41.38
23261;BME280;11799;47.740;-3.390;2023-02-28T12:49:27;102773.34;;;8.73;41.86
23261;BME280;11799;47.740;-3.390;2023-02-28T12:51:58;102754.03;;;8.73;42.38
23261;BME280;11799;47.740;-3.390;2023-02-28T12:54:48;102753.25;;;8.71;39.72
23261;BME280;11799;47.740;-3.390;2023-02-28T12:57:17;102755.75;;;8.74;39.92
23261;BME280;11799;47.740;-3.390;2023-02-28T12:59:55;102742.59;;;8.74;41.22
23261;BME280;11799;47.740;-3.390;2023-02-28T13:10:04;102725.38;;;8.87;41.74
23261;BME280;11799;47.740;-3.390;2023-02-28T13:12:33;102728.88;;;8.87;40.67
23261;BME280;11799;47.740;-3.390;2023-02-28T13:15:26;102723.47;;;8.90;40.84
23261;BME280;11799;47.740;-3.390;2023-02-28T13:17:58;102726.34;;;8.84;41.16
23261;BME280;11799;47.740;-3.390;2023-02-28T13:20:36;102712.19;;;8.87;40.24
23261;BME280;11799;47.740;-3.390;2023-02-28T13:23:03;102712.13;;;8.88;40.75
23261;BME280;11799;47.740;-3.390;2023-02-28T13:28:09;102706.69;;;8.93;41.41
23261;BME280;11799;47.740;-3.390;2023-02-28T13:33:36;102700.19;;;9.02;42.81
23261;BME280;11799;47.740;-3.390;2023-02-28T13:36:31;102687.06;;;9.00;41.95
23261;BME280;11799;47.740;-3.390;2023-02-28T13:39:00;102692.03;;;9.08;42.82
23261;BME280;11799;47.740;-3.390;2023-02-28T13:44:15;102688.34;;;9.12;41.65
23261;BME280;11799;47.740;-3.390;2023-02-28T13:49:31;102687.59;;;9.08;41.67
23261;BME280;11799;47.740;-3.390;2023-02-28T13:52:15;102683.97;;;9.11;42.68
23261;BME280;11799;47.740;-3.390;2023-02-28T14:06:21;102668.38;;;9.06;42.40
23261;BME280;11799;47.740;-3.390;2023-02-28T14:09:02;102659.53;;;9.07;43.86
23261;BME280;11799;47.740;-3.390;2023-02-28T14:11:39;102661.00;;;9.14;43.44
23261;BME280;11799;47.740;-3.390;2023-02-28T14:14:07;102660.19;;;9.12;43.53
23261;BME280;11799;47.740;-3.390;2023-02-28T14:16:41;102662.97;;;9.09;43.91
23261;BME280;11799;47.740;-3.390;2023-02-28T14:19:21;102655.84;;;9.11;43.89
23261;BME280;11799;47.740;-3.390;2023-02-28T14:27:28;102654.72;;;9.17;44.39
23261;BME280;11799;47.740;-3.390;2023-02-28T14:33:11;102657.47;;;9.34;44.82
23261;BME280;11799;47.740;-3.390;2023-02-28T14:38:46;102639.09;;;9.33;44.88
23261;BME280;11799;47.740;-3.390;2023-02-28T14:41:34;102635.66;;;9.31;44.21
23261;BME280;11799;47.740;-3.390;2023-02-28T14:44:03;102647.41;;;9.23;43.84
23261;BME280;11799;47.740;-3.390;2023-02-28T14:46:39;102638.72;;;9.21;44.65
23261;BME280;11799;47.740;-3.390;2023-02-28T14:49:07;102639.91;;;9.14;44.76
23261;BME280;11799;47.740;-3.390;2023-02-28T14:51:37;102642.59;;;9.13;45.06
23261;BME280;11799;47.740;-3.390;2023-02-28T14:54:03;102642.72;;;9.10;45.67
23261;BME280;11799;47.740;-3.390;2023-02-28T14:56:37;102641.16;;;9.06;46.05
23261;BME280;11799;47.740;-3.390;2023-02-28T14:59:04;102636.13;;;9.00;46.24
23261;BME280;11799;47.740;-3.390;2023-02-28T15:01:30;102633.63;;;8.97;46.48
23261;BME280;11799;47.740;-3.390;2023-02-28T15:04:04;102640.75;;;8.94;47.58
23261;BME280;11799;47.740;-3.390;2023-02-28T15:06:30;102639.22;;;8.89;47.14